sensor_id;sensor_type;location;lat;lon;timestamp;P1;durP1;ratioP1;P2;durP2;ratioP2
64799;SDS011;51233;51.982;4.594;2024-01-25T00:00:56;20.40;;;4.40;;
64799;SDS011;51233;51.982;4.594;2024-01-25T00:03:57;19.08;;;4.43;;
64799;SDS011;51233;51.982;4.594;2024-01-25T00:06:57;19.13;;;3.83;;
64799;SDS011;51233;51.982;4.594;2024-01-25T00:09:57;20.48;;;3.75;;
64799;SDS011;51233;51.982;4.594;2024-01-25T00:12:57;21.73;;;4.38;;
64799;SDS011;51233;51.982;4.594;2024-01-25T00:15:58;23.97;;;5.13;;
64799;SDS011;51233;51.982;4.594;2024-01-25T00:18:58;24.55;;;5.50;;
64799;SDS011;51233;51.982;4.594;2024-01-25T00:21:58;24.60;;;5.78;;
64799;SDS011;51233;51.982;4.594;2024-01-25T00:24:58;26.45;;;5.40;;
64799;SDS011;51233;51.982;4.594;2024-01-25T00:27:59;24.40;;;4.55;;
64799;SDS011;51233;51.982;4.594;2024-01-25T00:31:00;10.27;;;2.33;;
64799;SDS011;51233;51.982;4.594;2024-01-25T00:34:00;23.73;;;5.72;;
64799;SDS011;51233;51.982;4.594;2024-01-25T00:37:00;14.18;;;3.80;;
64799;SDS011;51233;51.982;4.594;2024-01-25T00:40:01;15.00;;;3.75;;
64799;SDS011;51233;51.982;4.594;2024-01-25T00:43:01;17.73;;;3.75;;
64799;SDS011;51233;51.982;4.594;2024-01-25T00:46:01;21.00;;;4.50;;
64799;SDS011;51233;51.982;4.594;2024-01-25T00:49:02;15.90;;;4.03;;
64799;SDS011;51233;51.982;4.594;2024-01-25T00:52:02;19.47;;;4.47;;
64799;SDS011;51233;51.982;4.594;2024-01-25T00:55:04;17.20;;;3.92;;
64799;SDS011;51233;51.982;4.594;2024-01-25T00:58:04;16.23;;;4.15;;
64799;SDS011;51233;51.982;4.594;2024-01-25T01:01:05;12.52;;;3.53;;
64799;SDS011;51233;51.982;4.594;2024-01-25T01:04:05;17.00;;;3.93;;
64799;SDS011;51233;51.982;4.594;2024-01-25T01:07:05;21.97;;;4.40;;
64799;SDS011;51233;51.982;4.594;2024-01-25T01:10:06;24.60;;;6.13;;
64799;SDS011;51233;51.982;4.594;2024-01-25T01:13:07;20.20;;;4.33;;
64799;SDS011;51233;51.982;4.594;2024-01-25T01:16:07;11.35;;;3.30;;
64799;SDS011;51233;51.982;4.594;2024-01-25T01:19:07;14.37;;;3.77;;
64799;SDS011;51233;51.982;4.594;2024-01-25T01:22:07;21.65;;;4.53;;
64799;SDS011;51233;51.982;4.594;2024-01-25T01:25:08;24.73;;;4.90;;
64799;SDS011;51233;51.982;4.594;2024-01-25T01:28:08;26.27;;;4.70;;
64799;SDS011;51233;51.982;4.594;2024-01-25T01:31:08;18.77;;;4.80;;
64799;SDS011;51233;51.982;4.594;2024-01-25T01:34:08;16.83;;;4.20;;
64799;SDS011;51233;51.982;4.594;2024-01-25T01:37:08;15.70;;;4.22;;
64799;SDS011;51233;51.982;4.594;2024-01-25T01:40:09;23.80;;;4.90;;
64799;SDS011;51233;51.982;4.594;2024-01-25T01:43:17;21.43;;;4.70;;
64799;SDS011;51233;51.982;4.594;2024-01-25T01:46:20;16.50;;;3.80;;
64799;SDS011;51233;51.982;4.594;2024-01-25T01:49:23;21.20;;;5.43;;
64799;SDS011;51233;51.982;4.594;2024-01-25T01:52:23;18.47;;;3.97;;
64799;SDS011;51233;51.982;4.594;2024-01-25T01:55:24;14.47;;;4.53;;
64799;SDS011;51233;51.982;4.594;2024-01-25T01:58:24;17.57;;;4.17;;
64799;SDS011;51233;51.982;4.594;2024-01-25T02:01:25;21.25;;;4.65;;
64799;SDS011;51233;51.982;4.594;2024-01-25T02:04:25;19.37;;;4.40;;
64799;SDS011;51233;51.982;4.594;2024-01-25T02:07:26;25.53;;;5.33;;
64799;SDS011;51233;51.982;4.594;2024-01-25T02:10:26;18.40;;;4.20;;
64799;SDS011;51233;51.982;4.594;2024-01-25T02:13:26;22.70;;;5.13;;
64799;SDS011;51233;51.982;4.594;2024-01-25T02:16:26;20.40;;;4.60;;
64799;SDS011;51233;51.982;4.594;2024-01-25T02:19:27;21.95;;;4.63;;
64799;SDS011;51233;51.982;4.594;2024-01-25T02:22:27;25.67;;;5.97;;
64799;SDS011;51233;51.982;4.594;2024-01-25T02:25:27;18.35;;;4.75;;
64799;SDS011;51233;51.982;4.594;2024-01-25T02:28:27;22.70;;;4.93;;
64799;SDS011;51233;51.982;4.594;2024-01-25T02:31:27;20.30;;;4.70;;
64799;SDS011;51233;51.982;4.594;2024-01-25T02:34:28;22.27;;;5.30;;
64799;SDS011;51233;51.982;4.594;2024-01-25T02:37:28;22.70;;;5.18;;
64799;SDS011;51233;51.982;4.594;2024-01-25T02:40:28;25.42;;;5.63;;
64799;SDS011;51233;51.982;4.594;2024-01-25T02:43:28;25.13;;;5.17;;
64799;SDS011;51233;51.982;4.594;2024-01-25T02:46:28;20.25;;;4.72;;
64799;SDS011;51233;51.982;4.594;2024-01-25T02:49:29;20.10;;;4.82;;
64799;SDS011;51233;51.982;4.594;2024-01-25T02:52:29;26.93;;;5.33;;
64799;SDS011;51233;51.982;4.594;2024-01-25T02:55:29;19.30;;;5.00;;
64799;SDS011;51233;51.982;4.594;2024-01-25T02:58:29;20.77;;;5.15;;
64799;SDS011;51233;51.982;4.594;2024-01-25T03:01:37;23.50;;;4.25;;
64799;SDS011;51233;51.982;4.594;2024-01-25T03:04:37;25.52;;;5.40;;
64799;SDS011;51233;51.982;4.594;2024-01-25T03:07:37;29.42;;;5.88;;
64799;SDS011;51233;51.982;4.594;2024-01-25T03:10:37;23.90;;;5.30;;
64799;SDS011;51233;51.982;4.594;2024-01-25T03:13:37;22.75;;;4.63;;
64799;SDS011;51233;51.982;4.594;2024-01-25T03:16:38;15.43;;;4.00;;
64799;SDS011;51233;51.982;4.594;2024-01-25T03:19:38;18.77;;;4.53;;
64799;SDS011;51233;51.982;4.594;2024-01-25T03:22:38;18.27;;;4.75;;
64799;SDS011;51233;51.982;4.594;2024-01-25T03:25:39;20.07;;;5.03;;
64799;SDS011;51233;51.982;4.594;2024-01-25T03:28:39;18.13;;;4.43;;
64799;SDS011;51233;51.982;4.594;2024-01-25T03:31:40;22.48;;;4.68;;
64799;SDS011;51233;51.982;4.594;2024-01-25T03:34:40;17.88;;;5.25;;
64799;SDS011;51233;51.982;4.594;2024-01-25T03:37:40;18.92;;;4.80;;
64799;SDS011;51233;51.982;4.594;2024-01-25T03:40:40;20.95;;;4.88;;
64799;SDS011;51233;51.982;4.594;2024-01-25T03:43:40;24.77;;;5.30;;
64799;SDS011;51233;51.982;4.594;2024-01-25T03:46:41;23.55;;;5.18;;
64799;SDS011;51233;51.982;4.594;2024-01-25T03:49:41;26.88;;;5.65;;
64799;SDS011;51233;51.982;4.594;2024-01-25T03:52:41;21.88;;;5.22;;
64799;SDS011;51233;51.982;4.594;2024-01-25T03:55:41;26.13;;;4.93;;
64799;SDS011;51233;51.982;4.594;2024-01-25T03:58:41;30.95;;;5.97;;
64799;SDS011;51233;51.982;4.594;2024-01-25T04:01:42;31.88;;;6.95;;
64799;SDS011;51233;51.982;4.594;2024-01-25T04:04:42;33.45;;;6.55;;
64799;SDS011;51233;51.982;4.594;2024-01-25T04:07:43;19.27;;;4.60;;
64799;SDS011;51233;51.982;4.594;2024-01-25T04:10:43;18.53;;;4.87;;
64799;SDS011;51233;51.982;4.594;2024-01-25T04:13:43;21.30;;;4.70;;
64799;SDS011;51233;51.982;4.594;2024-01-25T04:16:43;22.52;;;5.13;;
64799;SDS011;51233;51.982;4.594;2024-01-25T04:19:46;23.17;;;4.63;;
64799;SDS011;51233;51.982;4.594;2024-01-25T04:22:46;31.42;;;6.72;;
64799;SDS011;51233;51.982;4.594;2024-01-25T04:25:47;28.20;;;6.07;;
64799;SDS011;51233;51.982;4.594;2024-01-25T04:28:49;27.25;;;5.80;;
64799;SDS011;51233;51.982;4.594;2024-01-25T04:31:49;20.87;;;5.13;;
64799;SDS011;51233;51.982;4.594;2024-01-25T04:34:49;24.13;;;5.05;;
64799;SDS011;51233;51.982;4.594;2024-01-25T04:37:49;23.80;;;5.23;;
64799;SDS011;51233;51.982;4.594;2024-01-25T04:40:49;21.03;;;5.47;;
64799;SDS011;51233;51.982;4.594;2024-01-25T04:43:50;23.98;;;5.57;;
64799;SDS011;51233;51.982;4.594;2024-01-25T04:46:50;25.87;;;5.57;;
64799;SDS011;51233;51.982;4.594;2024-01-25T04:52:52;25.70;;;6.20;;
64799;SDS011;51233;51.982;4.594;2024-01-25T04:55:53;22.38;;;5.90;;
64799;SDS011;51233;51.982;4.594;2024-01-25T04:58:54;22.67;;;5.07;;
64799;SDS011;51233;51.982;4.594;2024-01-25T05:01:54;26.63;;;6.03;;
64799;SDS011;51233;51.982;4.594;2024-01-25T05:04:55;28.17;;;5.93;;
64799;SDS011;51233;51.982;4.594;2024-01-25T05:07:55;23.05;;;5.05;;
64799;SDS011;51233;51.982;4.594;2024-01-25T05:10:55;21.40;;;5.47;;
64799;SDS011;51233;51.982;4.594;2024-01-25T05:13:55;29.13;;;5.50;;
64799;SDS011;51233;51.982;4.594;2024-01-25T05:16:56;24.03;;;5.33;;
64799;SDS011;51233;51.982;4.594;2024-01-25T05:19:56;21.80;;;5.00;;
64799;SDS011;51233;51.982;4.594;2024-01-25T05:22:56;24.73;;;4.93;;
64799;SDS011;51233;51.982;4.594;2024-01-25T05:25:56;20.58;;;4.95;;
64799;SDS011;51233;51.982;4.594;2024-01-25T05:28:56;26.13;;;5.53;;
64799;SDS011;51233;51.982;4.594;2024-01-25T05:31:57;27.08;;;6.30;;
64799;SDS011;51233;51.982;4.594;2024-01-25T05:34:57;23.33;;;5.50;;
64799;SDS011;51233;51.982;4.594;2024-01-25T05:37:57;28.02;;;5.47;;
64799;SDS011;51233;51.982;4.594;2024-01-25T05:40:58;18.13;;;4.28;;
64799;SDS011;51233;51.982;4.594;2024-01-25T05:43:58;19.73;;;4.67;;
64799;SDS011;51233;51.982;4.594;2024-01-25T05:46:58;25.20;;;5.80;;
64799;SDS011;51233;51.982;4.594;2024-01-25T05:49:58;18.27;;;4.90;;
64799;SDS011;51233;51.982;4.594;2024-01-25T05:52:58;18.23;;;4.47;;
64799;SDS011;51233;51.982;4.594;2024-01-25T05:55:59;16.75;;;4.57;;
64799;SDS011;51233;51.982;4.594;2024-01-25T05:58:59;17.05;;;4.43;;
64799;SDS011;51233;51.982;4.594;2024-01-25T06:01:59;16.73;;;4.10;;
64799;SDS011;51233;51.982;4.594;2024-01-25T06:04:59;21.67;;;4.90;;
64799;SDS011;51233;51.982;4.594;2024-01-25T06:08:00;21.70;;;5.17;;
64799;SDS011;51233;51.982;4.594;2024-01-25T06:11:00;19.58;;;4.82;;
64799;SDS011;51233;51.982;4.594;2024-01-25T06:14:00;17.50;;;4.93;;
64799;SDS011;51233;51.982;4.594;2024-01-25T06:17:00;24.05;;;5.40;;
64799;SDS011;51233;51.982;4.594;2024-01-25T06:20:01;24.83;;;5.30;;
64799;SDS011;51233;51.982;4.594;2024-01-25T06:23:01;22.60;;;4.82;;
64799;SDS011;51233;51.982;4.594;2024-01-25T06:26:01;22.77;;;5.30;;
64799;SDS011;51233;51.982;4.594;2024-01-25T06:29:01;17.60;;;4.85;;
64799;SDS011;51233;51.982;4.594;2024-01-25T06:32:02;18.67;;;5.03;;
64799;SDS011;51233;51.982;4.594;2024-01-25T06:35:02;16.93;;;4.73;;
64799;SDS011;51233;51.982;4.594;2024-01-25T06:38:03;21.05;;;4.53;;
64799;SDS011;51233;51.982;4.594;2024-01-25T06:41:03;17.75;;;5.35;;
64799;SDS011;51233;51.982;4.594;2024-01-25T06:44:04;18.13;;;5.67;;
64799;SDS011;51233;51.982;4.594;2024-01-25T06:47:04;18.73;;;4.82;;
64799;SDS011;51233;51.982;4.594;2024-01-25T06:50:04;15.70;;;4.57;;
64799;SDS011;51233;51.982;4.594;2024-01-25T06:53:05;18.45;;;4.90;;
64799;SDS011;51233;51.982;4.594;2024-01-25T06:56:05;15.53;;;4.53;;
64799;SDS011;51233;51.982;4.594;2024-01-25T06:59:05;24.50;;;5.35;;
64799;SDS011;51233;51.982;4.594;2024-01-25T07:02:05;20.65;;;5.45;;
64799;SDS011;51233;51.982;4.594;2024-01-25T07:05:06;17.90;;;4.63;;
64799;SDS011;51233;51.982;4.594;2024-01-25T07:08:06;20.53;;;5.47;;
64799;SDS011;51233;51.982;4.594;2024-01-25T07:11:09;21.25;;;4.88;;
64799;SDS011;51233;51.982;4.594;2024-01-25T07:14:09;21.55;;;5.60;;
64799;SDS011;51233;51.982;4.594;2024-01-25T07:17:09;26.48;;;6.07;;
64799;SDS011;51233;51.982;4.594;2024-01-25T07:20:09;16.17;;;5.03;;
64799;SDS011;51233;51.982;4.594;2024-01-25T07:23:10;19.52;;;5.60;;
64799;SDS011;51233;51.982;4.594;2024-01-25T07:26:15;23.65;;;5.40;;
64799;SDS011;51233;51.982;4.594;2024-01-25T07:29:16;19.52;;;5.55;;
64799;SDS011;51233;51.982;4.594;2024-01-25T07:32:17;19.90;;;4.87;;
64799;SDS011;51233;51.982;4.594;2024-01-25T07:35:18;18.55;;;5.00;;
64799;SDS011;51233;51.982;4.594;2024-01-25T07:38:18;21.98;;;5.13;;
64799;SDS011;51233;51.982;4.594;2024-01-25T07:41:18;20.90;;;4.80;;
64799;SDS011;51233;51.982;4.594;2024-01-25T07:44:19;19.65;;;5.32;;
64799;SDS011;51233;51.982;4.594;2024-01-25T07:47:19;16.60;;;5.00;;
64799;SDS011;51233;51.982;4.594;2024-01-25T07:50:19;21.73;;;5.93;;
64799;SDS011;51233;51.982;4.594;2024-01-25T07:53:20;19.13;;;6.30;;
64799;SDS011;51233;51.982;4.594;2024-01-25T07:56:20;19.13;;;5.20;;
64799;SDS011;51233;51.982;4.594;2024-01-25T07:59:21;15.20;;;4.40;;
64799;SDS011;51233;51.982;4.594;2024-01-25T08:02:22;16.65;;;5.15;;
64799;SDS011;51233;51.982;4.594;2024-01-25T08:05:22;15.75;;;5.00;;
64799;SDS011;51233;51.982;4.594;2024-01-25T08:08:22;20.42;;;5.90;;
64799;SDS011;51233;51.982;4.594;2024-01-25T08:11:22;23.40;;;6.10;;
64799;SDS011;51233;51.982;4.594;2024-01-25T08:14:23;21.27;;;6.17;;
64799;SDS011;51233;51.982;4.594;2024-01-25T08:17:23;21.03;;;5.90;;
64799;SDS011;51233;51.982;4.594;2024-01-25T08:20:23;22.73;;;6.47;;
64799;SDS011;51233;51.982;4.594;2024-01-25T08:23:23;23.92;;;6.57;;
64799;SDS011;51233;51.982;4.594;2024-01-25T08:26:23;19.80;;;5.00;;
64799;SDS011;51233;51.982;4.594;2024-01-25T08:29:24;21.13;;;5.67;;
64799;SDS011;51233;51.982;4.594;2024-01-25T08:32:24;21.10;;;5.67;;
64799;SDS011;51233;51.982;4.594;2024-01-25T08:35:24;19.90;;;5.23;;
64799;SDS011;51233;51.982;4.594;2024-01-25T08:38:24;18.70;;;5.27;;
64799;SDS011;51233;51.982;4.594;2024-01-25T08:41:25;16.80;;;4.68;;
64799;SDS011;51233;51.982;4.594;2024-01-25T08:44:25;20.40;;;5.33;;
64799;SDS011;51233;51.982;4.594;2024-01-25T08:47:25;6.32;;;2.55;;
64799;SDS011;51233;51.982;4.594;2024-01-25T08:50:25;13.73;;;3.90;;
64799;SDS011;51233;51.982;4.594;2024-01-25T08:53:25;10.90;;;3.35;;
64799;SDS011;51233;51.982;4.594;2024-01-25T08:56:27;18.95;;;5.05;;
64799;SDS011;51233;51.982;4.594;2024-01-25T08:59:27;15.77;;;5.00;;
64799;SDS011;51233;51.982;4.594;2024-01-25T09:02:29;24.08;;;5.50;;
64799;SDS011;51233;51.982;4.594;2024-01-25T09:05:33;21.45;;;5.55;;
64799;SDS011;51233;51.982;4.594;2024-01-25T09:08:34;21.55;;;5.47;;
64799;SDS011;51233;51.982;4.594;2024-01-25T09:11:34;25.23;;;6.00;;
64799;SDS011;51233;51.982;4.594;2024-01-25T09:14:34;20.23;;;6.03;;
64799;SDS011;51233;51.982;4.594;2024-01-25T09:17:36;19.48;;;5.35;;
64799;SDS011;51233;51.982;4.594;2024-01-25T09:20:36;26.15;;;5.45;;
64799;SDS011;51233;51.982;4.594;2024-01-25T09:23:37;23.80;;;6.18;;
64799;SDS011;51233;51.982;4.594;2024-01-25T09:26:37;26.93;;;7.17;;
64799;SDS011;51233;51.982;4.594;2024-01-25T09:29:37;27.73;;;7.75;;
64799;SDS011;51233;51.982;4.594;2024-01-25T09:32:38;27.13;;;7.63;;
64799;SDS011;51233;51.982;4.594;2024-01-25T09:35:38;23.73;;;6.43;;
64799;SDS011;51233;51.982;4.594;2024-01-25T09:38:38;26.83;;;6.27;;
64799;SDS011;51233;51.982;4.594;2024-01-25T09:41:39;19.95;;;5.90;;
64799;SDS011;51233;51.982;4.594;2024-01-25T09:44:39;28.43;;;6.37;;
64799;SDS011;51233;51.982;4.594;2024-01-25T09:47:39;30.53;;;7.00;;
64799;SDS011;51233;51.982;4.594;2024-01-25T09:50:40;21.80;;;5.40;;
64799;SDS011;51233;51.982;4.594;2024-01-25T09:53:40;20.33;;;5.72;;
64799;SDS011;51233;51.982;4.594;2024-01-25T09:56:43;28.42;;;5.88;;
64799;SDS011;51233;51.982;4.594;2024-01-25T09:59:44;20.23;;;4.85;;
64799;SDS011;51233;51.982;4.594;2024-01-25T10:02:44;28.05;;;7.22;;
64799;SDS011;51233;51.982;4.594;2024-01-25T10:05:44;24.70;;;6.50;;
64799;SDS011;51233;51.982;4.594;2024-01-25T10:08:44;22.52;;;6.18;;
64799;SDS011;51233;51.982;4.594;2024-01-25T10:11:45;25.73;;;6.67;;
64799;SDS011;51233;51.982;4.594;2024-01-25T10:14:45;23.47;;;6.10;;
64799;SDS011;51233;51.982;4.594;2024-01-25T10:17:45;22.20;;;6.23;;
64799;SDS011;51233;51.982;4.594;2024-01-25T10:20:45;23.13;;;5.87;;
64799;SDS011;51233;51.982;4.594;2024-01-25T10:23:46;28.50;;;6.57;;
64799;SDS011;51233;51.982;4.594;2024-01-25T10:26:48;26.67;;;6.07;;
64799;SDS011;51233;51.982;4.594;2024-01-25T10:29:49;24.75;;;7.63;;
64799;SDS011;51233;51.982;4.594;2024-01-25T10:32:50;23.95;;;7.00;;
64799;SDS011;51233;51.982;4.594;2024-01-25T10:35:50;21.52;;;6.28;;
64799;SDS011;51233;51.982;4.594;2024-01-25T10:38:51;21.98;;;6.35;;
64799;SDS011;51233;51.982;4.594;2024-01-25T10:41:53;25.75;;;7.30;;
64799;SDS011;51233;51.982;4.594;2024-01-25T10:44:54;25.90;;;6.57;;
64799;SDS011;51233;51.982;4.594;2024-01-25T10:47:54;27.58;;;7.85;;
64799;SDS011;51233;51.982;4.594;2024-01-25T10:50:55;32.07;;;8.00;;
64799;SDS011;51233;51.982;4.594;2024-01-25T10:53:55;28.25;;;7.40;;
64799;SDS011;51233;51.982;4.594;2024-01-25T10:56:55;29.05;;;6.57;;
64799;SDS011;51233;51.982;4.594;2024-01-25T10:59:58;32.38;;;7.53;;
64799;SDS011;51233;51.982;4.594;2024-01-25T11:02:58;24.80;;;7.40;;
64799;SDS011;51233;51.982;4.594;2024-01-25T11:06:07;24.45;;;6.38;;
64799;SDS011;51233;51.982;4.594;2024-01-25T11:09:09;28.55;;;7.32;;
64799;SDS011;51233;51.982;4.594;2024-01-25T11:12:12;30.58;;;7.18;;
64799;SDS011;51233;51.982;4.594;2024-01-25T11:15:21;25.77;;;7.03;;
64799;SDS011;51233;51.982;4.594;2024-01-25T11:18:24;21.48;;;6.63;;
64799;SDS011;51233;51.982;4.594;2024-01-25T11:21:25;29.52;;;7.22;;
64799;SDS011;51233;51.982;4.594;2024-01-25T11:24:26;29.10;;;7.87;;
64799;SDS011;51233;51.982;4.594;2024-01-25T11:27:26;24.50;;;7.20;;
64799;SDS011;51233;51.982;4.594;2024-01-25T11:30:28;26.30;;;6.47;;
64799;SDS011;51233;51.982;4.594;2024-01-25T11:33:28;27.20;;;6.93;;
64799;SDS011;51233;51.982;4.594;2024-01-25T11:36:28;34.33;;;8.90;;
64799;SDS011;51233;51.982;4.594;2024-01-25T11:39:29;29.23;;;7.47;;
64799;SDS011;51233;51.982;4.594;2024-01-25T11:42:29;26.77;;;7.10;;
64799;SDS011;51233;51.982;4.594;2024-01-25T11:45:30;30.70;;;7.10;;
64799;SDS011;51233;51.982;4.594;2024-01-25T11:48:31;29.27;;;8.00;;
64799;SDS011;51233;51.982;4.594;2024-01-25T11:51:31;26.50;;;6.93;;
64799;SDS011;51233;51.982;4.594;2024-01-25T11:54:31;24.67;;;6.18;;
64799;SDS011;51233;51.982;4.594;2024-01-25T11:57:32;43.33;;;8.93;;
64799;SDS011;51233;51.982;4.594;2024-01-25T12:00:34;28.48;;;7.32;;
64799;SDS011;51233;51.982;4.594;2024-01-25T12:03:35;33.05;;;8.05;;
64799;SDS011;51233;51.982;4.594;2024-01-25T12:06:36;24.58;;;6.88;;
64799;SDS011;51233;51.982;4.594;2024-01-25T12:09:36;28.67;;;7.07;;
64799;SDS011;51233;51.982;4.594;2024-01-25T12:12:37;27.27;;;7.07;;
64799;SDS011;51233;51.982;4.594;2024-01-25T12:15:40;29.15;;;6.55;;
64799;SDS011;51233;51.982;4.594;2024-01-25T12:18:42;30.30;;;7.50;;
64799;SDS011;51233;51.982;4.594;2024-01-25T12:21:46;30.52;;;7.10;;
64799;SDS011;51233;51.982;4.594;2024-01-25T12:24:46;32.08;;;8.02;;
64799;SDS011;51233;51.982;4.594;2024-01-25T12:27:48;30.25;;;8.15;;
64799;SDS011;51233;51.982;4.594;2024-01-25T12:30:51;32.65;;;7.68;;
64799;SDS011;51233;51.982;4.594;2024-01-25T12:33:51;29.77;;;8.38;;
64799;SDS011;51233;51.982;4.594;2024-01-25T12:36:52;34.97;;;8.05;;
64799;SDS011;51233;51.982;4.594;2024-01-25T12:39:53;31.25;;;7.55;;
64799;SDS011;51233;51.982;4.594;2024-01-25T12:42:53;31.65;;;7.70;;
64799;SDS011;51233;51.982;4.594;2024-01-25T12:45:53;31.90;;;7.45;;
64799;SDS011;51233;51.982;4.594;2024-01-25T12:48:53;33.67;;;8.63;;
64799;SDS011;51233;51.982;4.594;2024-01-25T12:51:55;27.40;;;6.97;;
64799;SDS011;51233;51.982;4.594;2024-01-25T12:54:55;32.30;;;8.70;;
64799;SDS011;51233;51.982;4.594;2024-01-25T12:57:56;36.25;;;8.27;;
64799;SDS011;51233;51.982;4.594;2024-01-25T13:00:57;30.50;;;8.20;;
64799;SDS011;51233;51.982;4.594;2024-01-25T13:03:57;26.33;;;6.80;;
64799;SDS011;51233;51.982;4.594;2024-01-25T13:06:57;33.30;;;8.45;;
64799;SDS011;51233;51.982;4.594;2024-01-25T13:09:57;27.42;;;7.28;;
64799;SDS011;51233;51.982;4.594;2024-01-25T13:12:58;27.70;;;6.00;;
64799;SDS011;51233;51.982;4.594;2024-01-25T13:15:58;35.80;;;7.73;;
64799;SDS011;51233;51.982;4.594;2024-01-25T13:18:58;31.67;;;7.07;;
64799;SDS011;51233;51.982;4.594;2024-01-25T13:21:58;32.63;;;7.83;;
64799;SDS011;51233;51.982;4.594;2024-01-25T13:25:02;25.27;;;6.88;;
64799;SDS011;51233;51.982;4.594;2024-01-25T13:28:02;32.15;;;7.55;;
64799;SDS011;51233;51.982;4.594;2024-01-25T13:31:02;33.03;;;8.02;;
64799;SDS011;51233;51.982;4.594;2024-01-25T13:34:03;29.30;;;7.93;;
64799;SDS011;51233;51.982;4.594;2024-01-25T13:37:04;36.42;;;8.18;;
64799;SDS011;51233;51.982;4.594;2024-01-25T13:40:04;31.05;;;7.68;;
64799;SDS011;51233;51.982;4.594;2024-01-25T13:43:04;28.60;;;8.43;;
64799;SDS011;51233;51.982;4.594;2024-01-25T13:46:05;27.88;;;8.00;;
64799;SDS011;51233;51.982;4.594;2024-01-25T13:49:05;23.83;;;6.75;;
64799;SDS011;51233;51.982;4.594;2024-01-25T13:52:06;35.00;;;8.85;;
64799;SDS011;51233;51.982;4.594;2024-01-25T13:55:06;31.37;;;9.40;;
64799;SDS011;51233;51.982;4.594;2024-01-25T13:58:06;23.60;;;8.02;;
64799;SDS011;51233;51.982;4.594;2024-01-25T14:01:06;23.13;;;8.27;;
64799;SDS011;51233;51.982;4.594;2024-01-25T14:04:07;33.17;;;9.07;;
64799;SDS011;51233;51.982;4.594;2024-01-25T14:07:07;25.23;;;8.55;;
64799;SDS011;51233;51.982;4.594;2024-01-25T14:10:07;23.60;;;8.20;;
64799;SDS011;51233;51.982;4.594;2024-01-25T14:13:08;20.42;;;8.20;;
64799;SDS011;51233;51.982;4.594;2024-01-25T14:16:08;26.70;;;7.90;;
64799;SDS011;51233;51.982;4.594;2024-01-25T14:19:09;33.13;;;10.13;;
64799;SDS011;51233;51.982;4.594;2024-01-25T14:22:09;27.52;;;10.50;;
64799;SDS011;51233;51.982;4.594;2024-01-25T14:25:11;28.67;;;11.20;;
64799;SDS011;51233;51.982;4.594;2024-01-25T14:28:12;27.25;;;9.57;;
64799;SDS011;51233;51.982;4.594;2024-01-25T14:31:12;30.42;;;10.57;;
64799;SDS011;51233;51.982;4.594;2024-01-25T14:34:12;29.83;;;11.63;;
64799;SDS011;51233;51.982;4.594;2024-01-25T14:37:12;26.83;;;12.07;;
64799;SDS011;51233;51.982;4.594;2024-01-25T14:40:12;27.33;;;12.10;;
64799;SDS011;51233;51.982;4.594;2024-01-25T14:43:13;25.43;;;11.13;;
64799;SDS011;51233;51.982;4.594;2024-01-25T14:46:13;21.80;;;11.13;;
64799;SDS011;51233;51.982;4.594;2024-01-25T14:49:13;24.90;;;11.43;;
64799;SDS011;51233;51.982;4.594;2024-01-25T14:52:14;26.23;;;15.20;;
64799;SDS011;51233;51.982;4.594;2024-01-25T14:55:14;21.03;;;10.87;;
64799;SDS011;51233;51.982;4.594;2024-01-25T14:58:14;24.87;;;12.00;;
64799;SDS011;51233;51.982;4.594;2024-01-25T15:01:21;22.67;;;11.52;;
64799;SDS011;51233;51.982;4.594;2024-01-25T15:04:27;26.92;;;10.55;;
64799;SDS011;51233;51.982;4.594;2024-01-25T15:07:29;25.42;;;12.10;;
64799;SDS011;51233;51.982;4.594;2024-01-25T15:10:29;20.38;;;10.45;;
64799;SDS011;51233;51.982;4.594;2024-01-25T15:13:31;22.65;;;10.70;;
64799;SDS011;51233;51.982;4.594;2024-01-25T15:16:31;20.50;;;10.27;;
64799;SDS011;51233;51.982;4.594;2024-01-25T15:19:31;22.45;;;10.32;;
64799;SDS011;51233;51.982;4.594;2024-01-25T15:22:32;18.65;;;9.10;;
64799;SDS011;51233;51.982;4.594;2024-01-25T15:25:32;28.60;;;12.90;;
64799;SDS011;51233;51.982;4.594;2024-01-25T15:28:32;23.15;;;11.43;;
64799;SDS011;51233;51.982;4.594;2024-01-25T15:34:34;24.02;;;11.48;;
64799;SDS011;51233;51.982;4.594;2024-01-25T15:37:34;28.63;;;12.95;;
64799;SDS011;51233;51.982;4.594;2024-01-25T15:40:37;24.20;;;12.75;;
64799;SDS011;51233;51.982;4.594;2024-01-25T15:43:38;25.50;;;12.90;;
64799;SDS011;51233;51.982;4.594;2024-01-25T15:46:38;25.10;;;12.40;;
64799;SDS011;51233;51.982;4.594;2024-01-25T15:49:39;28.40;;;13.70;;
64799;SDS011;51233;51.982;4.594;2024-01-25T15:52:39;25.90;;;13.33;;
64799;SDS011;51233;51.982;4.594;2024-01-25T15:55:39;30.83;;;14.43;;
64799;SDS011;51233;51.982;4.594;2024-01-25T15:58:40;27.57;;;14.47;;
64799;SDS011;51233;51.982;4.594;2024-01-25T16:01:40;32.43;;;15.57;;
64799;SDS011;51233;51.982;4.594;2024-01-25T16:04:41;30.40;;;16.23;;
64799;SDS011;51233;51.982;4.594;2024-01-25T16:07:41;25.45;;;14.77;;
64799;SDS011;51233;51.982;4.594;2024-01-25T16:10:42;28.30;;;16.43;;
64799;SDS011;51233;51.982;4.594;2024-01-25T16:13:43;25.70;;;13.98;;
64799;SDS011;51233;51.982;4.594;2024-01-25T16:16:43;30.48;;;16.50;;
64799;SDS011;51233;51.982;4.594;2024-01-25T16:19:43;39.38;;;18.02;;
64799;SDS011;51233;51.982;4.594;2024-01-25T16:22:44;39.75;;;18.55;;
64799;SDS011;51233;51.982;4.594;2024-01-25T16:25:44;33.05;;;15.13;;
64799;SDS011;51233;51.982;4.594;2024-01-25T16:28:44;39.77;;;18.30;;
64799;SDS011;51233;51.982;4.594;2024-01-25T16:31:44;33.38;;;16.67;;
64799;SDS011;51233;51.982;4.594;2024-01-25T16:34:44;36.38;;;18.42;;
64799;SDS011;51233;51.982;4.594;2024-01-25T16:37:45;35.92;;;19.25;;
64799;SDS011;51233;51.982;4.594;2024-01-25T16:40:45;34.37;;;18.40;;
64799;SDS011;51233;51.982;4.594;2024-01-25T16:43:45;30.45;;;15.35;;
64799;SDS011;51233;51.982;4.594;2024-01-25T16:46:45;33.88;;;17.50;;
64799;SDS011;51233;51.982;4.594;2024-01-25T16:49:45;34.73;;;16.80;;
64799;SDS011;51233;51.982;4.594;2024-01-25T16:52:46;34.13;;;17.75;;
64799;SDS011;51233;51.982;4.594;2024-01-25T16:58:49;31.02;;;17.65;;
64799;SDS011;51233;51.982;4.594;2024-01-25T17:01:49;40.67;;;22.00;;
64799;SDS011;51233;51.982;4.594;2024-01-25T17:04:49;36.03;;;18.38;;
64799;SDS011;51233;51.982;4.594;2024-01-25T17:07:50;36.40;;;18.28;;
64799;SDS011;51233;51.982;4.594;2024-01-25T17:10:50;39.30;;;19.17;;
64799;SDS011;51233;51.982;4.594;2024-01-25T17:13:50;35.35;;;16.73;;
64799;SDS011;51233;51.982;4.594;2024-01-25T17:16:50;34.63;;;17.60;;
64799;SDS011;51233;51.982;4.594;2024-01-25T17:19:50;32.00;;;16.88;;
64799;SDS011;51233;51.982;4.594;2024-01-25T17:22:50;26.95;;;16.73;;
64799;SDS011;51233;51.982;4.594;2024-01-25T17:25:51;30.55;;;17.38;;
64799;SDS011;51233;51.982;4.594;2024-01-25T17:28:51;30.42;;;17.83;;
64799;SDS011;51233;51.982;4.594;2024-01-25T17:31:51;30.88;;;17.15;;
64799;SDS011;51233;51.982;4.594;2024-01-25T17:34:54;27.90;;;17.05;;
64799;SDS011;51233;51.982;4.594;2024-01-25T17:37:54;24.65;;;16.10;;
64799;SDS011;51233;51.982;4.594;2024-01-25T17:40:54;24.83;;;16.77;;
64799;SDS011;51233;51.982;4.594;2024-01-25T17:43:55;23.85;;;16.75;;
64799;SDS011;51233;51.982;4.594;2024-01-25T17:46:55;25.23;;;16.60;;
64799;SDS011;51233;51.982;4.594;2024-01-25T17:49:55;22.83;;;15.40;;
64799;SDS011;51233;51.982;4.594;2024-01-25T17:52:55;23.88;;;17.40;;
64799;SDS011;51233;51.982;4.594;2024-01-25T17:55:56;24.88;;;15.40;;